sensor_id;sensor_type;location;lat;lon;timestamp;P1;durP1;ratioP1;P2;durP2;ratioP2
22160;SDS011;49035;48.812;11.762;2022-10-22T00:00:32;41.22;;;21.88;;
22160;SDS011;49035;48.812;11.762;2022-10-22T00:02:58;39.70;;;22.40;;
22160;SDS011;49035;48.812;11.762;2022-10-22T00:05:23;37.42;;;21.92;;
22160;SDS011;49035;48.812;11.762;2022-10-22T00:07:49;41.80;;;21.42;;
22160;SDS011;49035;48.812;11.762;2022-10-22T00:10:15;35.67;;;20.85;;
22160;SDS011;49035;48.812;11.762;2022-10-22T00:12:42;41.40;;;20.60;;
22160;SDS011;49035;48.812;11.762;2022-10-22T00:15:09;37.88;;;21.45;;
22160;SDS011;49035;48.812;11.762;2022-10-22T00:17:36;37.60;;;20.77;;
22160;SDS011;49035;48.812;11.762;2022-10-22T00:20:01;36.63;;;21.33;;
22160;SDS011;49035;48.812;11.762;2022-10-22T00:22:28;39.70;;;20.90;;
22160;SDS011;49035;48.812;11.762;2022-10-22T00:24:54;34.20;;;20.02;;
22160;SDS011;49035;48.812;11.762;2022-10-22T00:27:19;30.90;;;18.17;;
22160;SDS011;49035;48.812;11.762;2022-10-22T00:29:45;34.78;;;20.20;;
22160;SDS011;49035;48.812;11.762;2022-10-22T00:32:10;35.97;;;20.77;;
22160;SDS011;49035;48.812;11.762;2022-10-22T00:34:36;38.50;;;21.88;;
22160;SDS011;49035;48.812;11.762;2022-10-22T00:37:01;41.78;;;21.45;;
22160;SDS011;49035;48.812;11.762;2022-10-22T00:39:27;38.72;;;21.17;;
22160;SDS011;49035;48.812;11.762;2022-10-22T00:41:54;41.15;;;21.55;;
22160;SDS011;49035;48.812;11.762;2022-10-22T00:50:53;39.15;;;21.75;;
22160;SDS011;49035;48.812;11.762;2022-10-22T00:53:34;37.80;;;22.17;;
22160;SDS011;49035;48.812;11.762;2022-10-22T00:56:03;40.97;;;20.20;;
22160;SDS011;49035;48.812;11.762;2022-10-22T00:58:32;42.17;;;20.90;;
22160;SDS011;49035;48.812;11.762;2022-10-22T01:01:00;37.97;;;20.55;;
22160;SDS011;49035;48.812;11.762;2022-10-22T01:03:26;37.08;;;20.08;;
22160;SDS011;49035;48.812;11.762;2022-10-22T01:05:55;38.78;;;19.63;;
22160;SDS011;49035;48.812;11.762;2022-10-22T01:14:10;48.83;;;20.42;;
22160;SDS011;49035;48.812;11.762;2022-10-22T01:16:43;34.22;;;19.90;;
22160;SDS011;49035;48.812;11.762;2022-10-22T01:22:10;41.10;;;21.63;;
22160;SDS011;49035;48.812;11.762;2022-10-22T01:30:33;33.30;;;18.85;;
22160;SDS011;49035;48.812;11.762;2022-10-22T01:33:01;40.50;;;19.80;;
22160;SDS011;49035;48.812;11.762;2022-10-22T01:35:31;43.05;;;20.67;;
22160;SDS011;49035;48.812;11.762;2022-10-22T01:38:02;42.75;;;20.17;;
22160;SDS011;49035;48.812;11.762;2022-10-22T01:40:31;39.33;;;19.63;;
22160;SDS011;49035;48.812;11.762;2022-10-22T01:43:01;38.85;;;19.73;;
22160;SDS011;49035;48.812;11.762;2022-10-22T01:45:33;34.28;;;20.02;;
22160;SDS011;49035;48.812;11.762;2022-10-22T02:07:53;38.15;;;19.42;;
22160;SDS011;49035;48.812;11.762;2022-10-22T02:10:23;42.80;;;20.38;;
22160;SDS011;49035;48.812;11.762;2022-10-22T02:12:51;37.95;;;19.63;;
22160;SDS011;49035;48.812;11.762;2022-10-22T02:15:19;38.22;;;19.73;;
22160;SDS011;49035;48.812;11.762;2022-10-22T02:17:47;34.78;;;18.13;;
22160;SDS011;49035;48.812;11.762;2022-10-22T02:20:15;35.95;;;19.15;;
22160;SDS011;49035;48.812;11.762;2022-10-22T02:22:51;37.75;;;21.30;;
22160;SDS011;49035;48.812;11.762;2022-10-22T02:25:17;38.72;;;20.17;;
22160;SDS011;49035;48.812;11.762;2022-10-22T02:27:47;33.67;;;19.17;;
22160;SDS011;49035;48.812;11.762;2022-10-22T02:30:45;32.45;;;17.70;;
22160;SDS011;49035;48.812;11.762;2022-10-22T02:33:21;34.72;;;18.85;;
22160;SDS011;49035;48.812;11.762;2022-10-22T02:35:52;45.35;;;20.85;;
22160;SDS011;49035;48.812;11.762;2022-10-22T02:38:20;43.92;;;22.65;;
22160;SDS011;49035;48.812;11.762;2022-10-22T02:40:48;42.80;;;21.77;;
22160;SDS011;49035;48.812;11.762;2022-10-22T02:43:13;45.00;;;22.45;;
22160;SDS011;49035;48.812;11.762;2022-10-22T02:45:39;47.97;;;22.38;;
22160;SDS011;49035;48.812;11.762;2022-10-22T02:48:05;39.90;;;21.95;;
22160;SDS011;49035;48.812;11.762;2022-10-22T02:50:30;46.15;;;21.67;;
22160;SDS011;49035;48.812;11.762;2022-10-22T02:52:56;38.50;;;21.73;;
22160;SDS011;49035;48.812;11.762;2022-10-22T02:55:22;42.75;;;22.35;;
22160;SDS011;49035;48.812;11.762;2022-10-22T02:57:47;39.08;;;21.27;;
22160;SDS011;49035;48.812;11.762;2022-10-22T03:00:13;36.55;;;20.80;;
22160;SDS011;49035;48.812;11.762;2022-10-22T03:02:39;32.47;;;19.67;;
22160;SDS011;49035;48.812;11.762;2022-10-22T03:05:05;37.13;;;21.00;;
22160;SDS011;49035;48.812;11.762;2022-10-22T03:07:31;35.60;;;19.20;;
22160;SDS011;49035;48.812;11.762;2022-10-22T03:09:56;35.00;;;19.88;;
22160;SDS011;49035;48.812;11.762;2022-10-22T03:12:22;36.92;;;20.05;;
22160;SDS011;49035;48.812;11.762;2022-10-22T03:14:47;38.25;;;19.70;;
22160;SDS011;49035;48.812;11.762;2022-10-22T03:17:13;34.83;;;17.70;;
22160;SDS011;49035;48.812;11.762;2022-10-22T03:19:39;40.35;;;20.98;;
22160;SDS011;49035;48.812;11.762;2022-10-22T03:22:06;42.88;;;20.48;;
22160;SDS011;49035;48.812;11.762;2022-10-22T03:24:36;32.28;;;18.40;;
22160;SDS011;49035;48.812;11.762;2022-10-22T03:27:05;43.05;;;18.75;;
22160;SDS011;49035;48.812;11.762;2022-10-22T03:29:32;56.95;;;23.25;;
22160;SDS011;49035;48.812;11.762;2022-10-22T03:31:59;41.60;;;21.42;;
22160;SDS011;49035;48.812;11.762;2022-10-22T03:34:25;36.83;;;19.08;;
22160;SDS011;49035;48.812;11.762;2022-10-22T03:36:51;30.98;;;17.90;;
22160;SDS011;49035;48.812;11.762;2022-10-22T03:39:17;34.95;;;18.35;;
22160;SDS011;49035;48.812;11.762;2022-10-22T03:41:45;37.95;;;19.05;;
22160;SDS011;49035;48.812;11.762;2022-10-22T03:44:12;45.70;;;20.23;;
22160;SDS011;49035;48.812;11.762;2022-10-22T03:46:39;32.05;;;18.52;;
22160;SDS011;49035;48.812;11.762;2022-10-22T03:49:05;44.53;;;20.48;;
22160;SDS011;49035;48.812;11.762;2022-10-22T03:51:31;30.05;;;17.52;;
22160;SDS011;49035;48.812;11.762;2022-10-22T03:53:56;33.13;;;17.10;;
22160;SDS011;49035;48.812;11.762;2022-10-22T03:56:22;32.08;;;15.13;;
22160;SDS011;49035;48.812;11.762;2022-10-22T03:58:48;28.20;;;15.18;;
22160;SDS011;49035;48.812;11.762;2022-10-22T04:01:13;22.70;;;12.73;;
22160;SDS011;49035;48.812;11.762;2022-10-22T04:03:39;21.75;;;11.07;;
22160;SDS011;49035;48.812;11.762;2022-10-22T04:06:09;21.42;;;10.90;;
22160;SDS011;49035;48.812;11.762;2022-10-22T04:08:37;18.52;;;9.45;;
22160;SDS011;49035;48.812;11.762;2022-10-22T04:11:05;22.70;;;10.02;;
22160;SDS011;49035;48.812;11.762;2022-10-22T04:13:31;17.20;;;9.43;;
22160;SDS011;49035;48.812;11.762;2022-10-22T04:18:56;20.90;;;9.95;;
22160;SDS011;49035;48.812;11.762;2022-10-22T04:21:22;21.73;;;9.82;;
22160;SDS011;49035;48.812;11.762;2022-10-22T04:23:49;21.50;;;9.30;;
22160;SDS011;49035;48.812;11.762;2022-10-22T04:26:16;21.67;;;9.73;;
22160;SDS011;49035;48.812;11.762;2022-10-22T04:28:43;19.60;;;9.20;;
22160;SDS011;49035;48.812;11.762;2022-10-22T04:31:10;14.55;;;8.43;;
22160;SDS011;49035;48.812;11.762;2022-10-22T04:33:41;15.65;;;7.97;;
22160;SDS011;49035;48.812;11.762;2022-10-22T04:36:10;14.52;;;8.48;;
22160;SDS011;49035;48.812;11.762;2022-10-22T04:38:38;14.73;;;8.43;;
22160;SDS011;49035;48.812;11.762;2022-10-22T04:41:07;14.35;;;8.45;;
22160;SDS011;49035;48.812;11.762;2022-10-22T04:43:34;13.68;;;8.40;;
22160;SDS011;49035;48.812;11.762;2022-10-22T04:46:00;17.00;;;8.65;;
22160;SDS011;49035;48.812;11.762;2022-10-22T04:48:26;14.68;;;8.35;;
22160;SDS011;49035;48.812;11.762;2022-10-22T04:50:51;20.23;;;9.52;;
22160;SDS011;49035;48.812;11.762;2022-10-22T04:53:17;20.20;;;8.02;;
22160;SDS011;49035;48.812;11.762;2022-10-22T04:55:42;16.75;;;8.73;;
22160;SDS011;49035;48.812;11.762;2022-10-22T04:58:08;15.55;;;8.75;;
22160;SDS011;49035;48.812;11.762;2022-10-22T05:00:33;24.70;;;9.35;;
22160;SDS011;49035;48.812;11.762;2022-10-22T05:02:59;17.38;;;9.30;;
22160;SDS011;49035;48.812;11.762;2022-10-22T05:05:25;19.90;;;9.10;;
22160;SDS011;49035;48.812;11.762;2022-10-22T05:07:50;16.40;;;8.40;;
22160;SDS011;49035;48.812;11.762;2022-10-22T05:10:16;10.95;;;6.70;;
22160;SDS011;49035;48.812;11.762;2022-10-22T05:12:42;12.40;;;7.15;;
22160;SDS011;49035;48.812;11.762;2022-10-22T05:15:07;12.30;;;7.03;;
22160;SDS011;49035;48.812;11.762;2022-10-22T05:17:36;13.95;;;7.43;;
22160;SDS011;49035;48.812;11.762;2022-10-22T05:20:03;11.40;;;5.50;;
22160;SDS011;49035;48.812;11.762;2022-10-22T05:22:29;12.30;;;5.40;;
22160;SDS011;49035;48.812;11.762;2022-10-22T05:24:54;6.38;;;4.60;;
22160;SDS011;49035;48.812;11.762;2022-10-22T05:27:20;6.85;;;4.18;;
22160;SDS011;49035;48.812;11.762;2022-10-22T05:29:45;6.72;;;4.07;;
22160;SDS011;49035;48.812;11.762;2022-10-22T05:32:11;5.85;;;3.97;;
22160;SDS011;49035;48.812;11.762;2022-10-22T05:34:37;7.93;;;3.55;;
22160;SDS011;49035;48.812;11.762;2022-10-22T05:37:02;7.88;;;3.50;;
22160;SDS011;49035;48.812;11.762;2022-10-22T05:39:28;7.90;;;3.47;;
22160;SDS011;49035;48.812;11.762;2022-10-22T05:41:53;6.05;;;3.45;;
22160;SDS011;49035;48.812;11.762;2022-10-22T05:44:19;7.70;;;3.55;;
22160;SDS011;49035;48.812;11.762;2022-10-22T05:46:44;6.50;;;3.55;;
22160;SDS011;49035;48.812;11.762;2022-10-22T05:49:11;7.15;;;3.88;;
22160;SDS011;49035;48.812;11.762;2022-10-22T05:51:39;11.65;;;4.50;;
22160;SDS011;49035;48.812;11.762;2022-10-22T05:54:05;4.55;;;3.42;;
22160;SDS011;49035;48.812;11.762;2022-10-22T05:56:33;6.30;;;3.60;;
22160;SDS011;49035;48.812;11.762;2022-10-22T05:58:59;8.18;;;3.42;;
22160;SDS011;49035;48.812;11.762;2022-10-22T06:01:30;7.55;;;3.95;;
22160;SDS011;49035;48.812;11.762;2022-10-22T06:03:57;5.38;;;3.05;;
22160;SDS011;49035;48.812;11.762;2022-10-22T06:06:26;9.43;;;3.30;;
22160;SDS011;49035;48.812;11.762;2022-10-22T06:08:55;4.28;;;3.53;;
22160;SDS011;49035;48.812;11.762;2022-10-22T06:11:25;10.18;;;3.55;;
22160;SDS011;49035;48.812;11.762;2022-10-22T06:13:51;5.82;;;3.83;;
22160;SDS011;49035;48.812;11.762;2022-10-22T06:16:17;9.02;;;3.95;;
22160;SDS011;49035;48.812;11.762;2022-10-22T06:18:43;7.60;;;4.05;;
22160;SDS011;49035;48.812;11.762;2022-10-22T06:21:09;6.38;;;3.80;;
22160;SDS011;49035;48.812;11.762;2022-10-22T06:23:37;8.55;;;4.47;;
22160;SDS011;49035;48.812;11.762;2022-10-22T06:26:03;6.28;;;3.90;;
22160;SDS011;49035;48.812;11.762;2022-10-22T06:28:30;9.20;;;3.58;;
22160;SDS011;49035;48.812;11.762;2022-10-22T06:30:57;5.72;;;3.65;;
22160;SDS011;49035;48.812;11.762;2022-10-22T06:33:23;9.35;;;3.95;;
22160;SDS011;49035;48.812;11.762;2022-10-22T06:35:50;11.38;;;4.97;;
22160;SDS011;49035;48.812;11.762;2022-10-22T06:38:15;14.15;;;7.57;;
22160;SDS011;49035;48.812;11.762;2022-10-22T06:40:41;14.52;;;6.18;;
22160;SDS011;49035;48.812;11.762;2022-10-22T06:43:10;7.88;;;4.45;;
22160;SDS011;49035;48.812;11.762;2022-10-22T06:45:36;7.60;;;4.40;;
22160;SDS011;49035;48.812;11.762;2022-10-22T06:48:02;8.32;;;4.20;;
22160;SDS011;49035;48.812;11.762;2022-10-22T06:50:27;6.85;;;4.72;;
22160;SDS011;49035;48.812;11.762;2022-10-22T06:52:53;6.32;;;4.50;;
22160;SDS011;49035;48.812;11.762;2022-10-22T06:55:19;11.45;;;4.90;;
22160;SDS011;49035;48.812;11.762;2022-10-22T06:57:44;7.45;;;5.00;;
22160;SDS011;49035;48.812;11.762;2022-10-22T07:00:10;8.40;;;4.57;;
22160;SDS011;49035;48.812;11.762;2022-10-22T07:02:36;7.47;;;4.88;;
22160;SDS011;49035;48.812;11.762;2022-10-22T07:05:02;8.27;;;5.20;;
22160;SDS011;49035;48.812;11.762;2022-10-22T07:07:27;10.50;;;6.07;;
22160;SDS011;49035;48.812;11.762;2022-10-22T07:09:53;10.00;;;6.20;;
22160;SDS011;49035;48.812;11.762;2022-10-22T07:12:18;9.57;;;5.57;;
22160;SDS011;49035;48.812;11.762;2022-10-22T07:14:44;8.05;;;5.28;;
22160;SDS011;49035;48.812;11.762;2022-10-22T07:17:09;10.25;;;6.22;;
22160;SDS011;49035;48.812;11.762;2022-10-22T07:19:35;12.68;;;6.28;;
22160;SDS011;49035;48.812;11.762;2022-10-22T07:22:01;8.60;;;5.53;;
22160;SDS011;49035;48.812;11.762;2022-10-22T07:24:26;7.78;;;5.50;;
22160;SDS011;49035;48.812;11.762;2022-10-22T07:26:52;12.52;;;5.47;;
22160;SDS011;49035;48.812;11.762;2022-10-22T07:29:18;7.85;;;4.80;;
22160;SDS011;49035;48.812;11.762;2022-10-22T07:31:43;11.15;;;5.53;;
22160;SDS011;49035;48.812;11.762;2022-10-22T07:34:09;14.50;;;5.50;;
22160;SDS011;49035;48.812;11.762;2022-10-22T07:36:35;8.43;;;4.95;;
22160;SDS011;49035;48.812;11.762;2022-10-22T07:39:00;8.55;;;5.18;;
22160;SDS011;49035;48.812;11.762;2022-10-22T07:41:27;8.07;;;4.80;;
22160;SDS011;49035;48.812;11.762;2022-10-22T07:43:54;5.57;;;4.40;;
22160;SDS011;49035;48.812;11.762;2022-10-22T07:46:20;12.38;;;4.82;;
22160;SDS011;49035;48.812;11.762;2022-10-22T07:48:45;8.18;;;4.55;;
22160;SDS011;49035;48.812;11.762;2022-10-22T07:51:11;8.65;;;5.22;;
22160;SDS011;49035;48.812;11.762;2022-10-22T07:53:37;11.25;;;5.13;;
22160;SDS011;49035;48.812;11.762;2022-10-22T07:56:03;6.78;;;5.10;;
22160;SDS011;49035;48.812;11.762;2022-10-22T07:58:29;5.03;;;4.05;;
22160;SDS011;49035;48.812;11.762;2022-10-22T08:00:56;5.30;;;3.90;;
22160;SDS011;49035;48.812;11.762;2022-10-22T08:03:24;4.82;;;4.10;;
22160;SDS011;49035;48.812;11.762;2022-10-22T08:05:50;4.70;;;3.20;;
22160;SDS011;49035;48.812;11.762;2022-10-22T08:08:16;7.13;;;3.42;;
22160;SDS011;49035;48.812;11.762;2022-10-22T08:10:43;4.10;;;2.92;;
22160;SDS011;49035;48.812;11.762;2022-10-22T08:13:10;6.25;;;3.40;;
22160;SDS011;49035;48.812;11.762;2022-10-22T08:15:35;3.75;;;2.97;;
22160;SDS011;49035;48.812;11.762;2022-10-22T08:18:01;5.32;;;2.95;;
22160;SDS011;49035;48.812;11.762;2022-10-22T08:20:27;5.53;;;3.13;;
22160;SDS011;49035;48.812;11.762;2022-10-22T08:22:53;3.30;;;2.67;;
22160;SDS011;49035;48.812;11.762;2022-10-22T08:25:18;5.13;;;2.97;;
22160;SDS011;49035;48.812;11.762;2022-10-22T08:27:44;4.90;;;2.70;;
22160;SDS011;49035;48.812;11.762;2022-10-22T08:30:10;3.78;;;2.92;;
22160;SDS011;49035;48.812;11.762;2022-10-22T08:32:36;4.50;;;2.72;;
22160;SDS011;49035;48.812;11.762;2022-10-22T08:35:02;4.68;;;2.45;;
22160;SDS011;49035;48.812;11.762;2022-10-22T08:37:28;4.70;;;2.10;;
22160;SDS011;49035;48.812;11.762;2022-10-22T08:39:53;2.72;;;1.98;;
22160;SDS011;49035;48.812;11.762;2022-10-22T08:45:23;7.57;;;2.00;;
22160;SDS011;49035;48.812;11.762;2022-10-22T08:47:58;6.55;;;2.00;;
22160;SDS011;49035;48.812;11.762;2022-10-22T08:50:44;2.13;;;1.88;;
22160;SDS011;49035;48.812;11.762;2022-10-22T08:53:20;2.67;;;1.60;;
22160;SDS011;49035;48.812;11.762;2022-10-22T08:55:52;3.97;;;2.00;;
22160;SDS011;49035;48.812;11.762;2022-10-22T09:01:09;3.78;;;1.48;;
22160;SDS011;49035;48.812;11.762;2022-10-22T09:06:43;3.70;;;1.40;;
22160;SDS011;49035;48.812;11.762;2022-10-22T09:09:10;6.40;;;1.25;;
22160;SDS011;49035;48.812;11.762;2022-10-22T09:11:42;4.43;;;1.45;;
22160;SDS011;49035;48.812;11.762;2022-10-22T09:14:15;1.70;;;1.30;;
22160;SDS011;49035;48.812;11.762;2022-10-22T09:27:35;2.10;;;1.50;;
22160;SDS011;49035;48.812;11.762;2022-10-22T09:30:01;1.85;;;1.42;;
22160;SDS011;49035;48.812;11.762;2022-10-22T09:32:27;2.25;;;1.38;;
22160;SDS011;49035;48.812;11.762;2022-10-22T09:34:56;4.45;;;1.42;;
22160;SDS011;49035;48.812;11.762;2022-10-22T09:37:26;2.42;;;1.33;;
22160;SDS011;49035;48.812;11.762;2022-10-22T09:39:54;2.63;;;1.13;;
22160;SDS011;49035;48.812;11.762;2022-10-22T09:42:21;2.58;;;1.20;;
22160;SDS011;49035;48.812;11.762;2022-10-22T09:44:54;1.02;;;0.98;;
22160;SDS011;49035;48.812;11.762;2022-10-22T09:50:55;2.00;;;1.13;;
22160;SDS011;49035;48.812;11.762;2022-10-22T09:52:59;1.30;;;1.20;;
22160;SDS011;49035;48.812;11.762;2022-10-22T09:55:29;2.15;;;1.08;;
22160;SDS011;49035;48.812;11.762;2022-10-22T09:57:57;5.25;;;1.30;;
22160;SDS011;49035;48.812;11.762;2022-10-22T10:00:24;1.83;;;1.20;;
22160;SDS011;49035;48.812;11.762;2022-10-22T10:02:57;2.40;;;1.20;;
22160;SDS011;49035;48.812;11.762;2022-10-22T10:05:26;2.55;;;1.20;;
22160;SDS011;49035;48.812;11.762;2022-10-22T10:07:54;2.53;;;1.42;;
22160;SDS011;49035;48.812;11.762;2022-10-22T10:10:30;1.45;;;1.25;;
22160;SDS011;49035;48.812;11.762;2022-10-22T10:13:08;2.28;;;1.10;;
22160;SDS011;49035;48.812;11.762;2022-10-22T10:15:55;2.03;;;1.30;;
22160;SDS011;49035;48.812;11.762;2022-10-22T10:18:33;3.78;;;1.30;;
22160;SDS011;49035;48.812;11.762;2022-10-22T10:26:53;3.53;;;1.23;;
22160;SDS011;49035;48.812;11.762;2022-10-22T10:29:36;2.20;;;1.10;;
22160;SDS011;49035;48.812;11.762;2022-10-22T10:41:31;1.10;;;0.90;;
22160;SDS011;49035;48.812;11.762;2022-10-22T10:43:55;2.85;;;0.93;;
22160;SDS011;49035;48.812;11.762;2022-10-22T10:49:45;2.05;;;0.90;;
22160;SDS011;49035;48.812;11.762;2022-10-22T10:54:53;1.10;;;1.00;;
22160;SDS011;49035;48.812;11.762;2022-10-22T11:00:14;1.27;;;0.90;;
22160;SDS011;49035;48.812;11.762;2022-10-22T11:05:39;2.58;;;1.00;;
22160;SDS011;49035;48.812;11.762;2022-10-22T11:10:58;2.70;;;1.00;;
22160;SDS011;49035;48.812;11.762;2022-10-22T11:16:26;1.83;;;0.90;;
22160;SDS011;49035;48.812;11.762;2022-10-22T11:22:10;0.93;;;0.90;;
22160;SDS011;49035;48.812;11.762;2022-10-22T11:30:23;1.58;;;1.27;;
22160;SDS011;49035;48.812;11.762;2022-10-22T11:32:52;9.15;;;6.50;;
22160;SDS011;49035;48.812;11.762;2022-10-22T11:35:23;16.83;;;8.57;;
22160;SDS011;49035;48.812;11.762;2022-10-22T11:37:55;27.40;;;14.65;;
22160;SDS011;49035;48.812;11.762;2022-10-22T11:40:30;18.30;;;10.65;;
22160;SDS011;49035;48.812;11.762;2022-10-22T11:43:33;9.52;;;7.18;;
22160;SDS011;49035;48.812;11.762;2022-10-22T11:48:41;1.02;;;0.73;;
22160;SDS011;49035;48.812;11.762;2022-10-22T11:59:40;1.67;;;0.85;;
22160;SDS011;49035;48.812;11.762;2022-10-22T12:08:04;1.20;;;1.00;;
22160;SDS011;49035;48.812;11.762;2022-10-22T12:11:19;1.63;;;0.95;;
22160;SDS011;49035;48.812;11.762;2022-10-22T12:13:31;1.38;;;0.80;;
22160;SDS011;49035;48.812;11.762;2022-10-22T12:16:16;1.10;;;0.77;;
22160;SDS011;49035;48.812;11.762;2022-10-22T12:18:43;0.90;;;0.82;;
22160;SDS011;49035;48.812;11.762;2022-10-22T12:21:13;2.17;;;1.17;;
22160;SDS011;49035;48.812;11.762;2022-10-22T12:23:40;1.45;;;1.20;;
22160;SDS011;49035;48.812;11.762;2022-10-22T12:26:30;1.85;;;1.00;;
22160;SDS011;49035;48.812;11.762;2022-10-22T12:28:58;2.08;;;1.05;;
22160;SDS011;49035;48.812;11.762;2022-10-22T12:31:34;2.30;;;1.20;;
22160;SDS011;49035;48.812;11.762;2022-10-22T12:34:01;1.83;;;1.10;;
22160;SDS011;49035;48.812;11.762;2022-10-22T12:36:28;1.35;;;1.08;;
22160;SDS011;49035;48.812;11.762;2022-10-22T12:38:58;2.45;;;1.00;;
22160;SDS011;49035;48.812;11.762;2022-10-22T12:41:31;1.25;;;0.77;;
22160;SDS011;49035;48.812;11.762;2022-10-22T12:44:02;2.78;;;0.80;;
22160;SDS011;49035;48.812;11.762;2022-10-22T12:46:29;1.05;;;0.80;;
22160;SDS011;49035;48.812;11.762;2022-10-22T12:49:01;1.67;;;0.88;;
22160;SDS011;49035;48.812;11.762;2022-10-22T12:51:29;0.70;;;0.70;;
22160;SDS011;49035;48.812;11.762;2022-10-22T12:53:56;1.35;;;1.00;;
22160;SDS011;49035;48.812;11.762;2022-10-22T12:56:27;1.02;;;1.02;;
22160;SDS011;49035;48.812;11.762;2022-10-22T12:58:56;1.30;;;0.82;;
22160;SDS011;49035;48.812;11.762;2022-10-22T13:01:25;0.93;;;0.80;;
22160;SDS011;49035;48.812;11.762;2022-10-22T13:06:42;3.00;;;0.90;;
22160;SDS011;49035;48.812;11.762;2022-10-22T13:09:14;0.77;;;0.73;;
22160;SDS011;49035;48.812;11.762;2022-10-22T13:11:49;0.93;;;0.82;;
22160;SDS011;49035;48.812;11.762;2022-10-22T13:14:19;5.35;;;0.98;;
22160;SDS011;49035;48.812;11.762;2022-10-22T13:19:42;2.35;;;1.10;;
22160;SDS011;49035;48.812;11.762;2022-10-22T13:22:26;1.85;;;0.73;;
22160;SDS011;49035;48.812;11.762;2022-10-22T13:27:58;3.05;;;0.88;;
22160;SDS011;49035;48.812;11.762;2022-10-22T13:30:34;1.67;;;0.77;;
22160;SDS011;49035;48.812;11.762;2022-10-22T13:33:05;0.88;;;0.80;;
22160;SDS011;49035;48.812;11.762;2022-10-22T13:35:46;0.70;;;0.70;;
22160;SDS011;49035;48.812;11.762;2022-10-22T13:38:20;2.83;;;0.98;;
22160;SDS011;49035;48.812;11.762;2022-10-22T13:40:47;0.88;;;0.88;;
22160;SDS011;49035;48.812;11.762;2022-10-22T13:43:15;3.15;;;1.40;;
22160;SDS011;49035;48.812;11.762;2022-10-22T13:45:42;1.85;;;0.90;;
22160;SDS011;49035;48.812;11.762;2022-10-22T13:48:12;0.98;;;0.85;;
22160;SDS011;49035;48.812;11.762;2022-10-22T13:50:40;1.80;;;0.90;;
22160;SDS011;49035;48.812;11.762;2022-10-22T13:53:08;2.08;;;1.27;;
22160;SDS011;49035;48.812;11.762;2022-10-22T13:55:41;3.00;;;1.30;;
22160;SDS011;49035;48.812;11.762;2022-10-22T13:58:10;3.13;;;1.40;;
22160;SDS011;49035;48.812;11.762;2022-10-22T14:00:38;1.40;;;1.27;;
22160;SDS011;49035;48.812;11.762;2022-10-22T14:03:07;2.67;;;1.00;;
22160;SDS011;49035;48.812;11.762;2022-10-22T14:05:35;1.40;;;1.30;;
22160;SDS011;49035;48.812;11.762;2022-10-22T14:08:00;1.75;;;1.30;;
22160;SDS011;49035;48.812;11.762;2022-10-22T14:10:27;1.75;;;1.35;;
22160;SDS011;49035;48.812;11.762;2022-10-22T14:12:53;1.60;;;1.50;;
22160;SDS011;49035;48.812;11.762;2022-10-22T14:15:19;1.50;;;1.40;;
22160;SDS011;49035;48.812;11.762;2022-10-22T14:17:53;1.63;;;1.20;;
22160;SDS011;49035;48.812;11.762;2022-10-22T14:20:22;3.53;;;1.10;;
22160;SDS011;49035;48.812;11.762;2022-10-22T14:22:49;1.20;;;1.10;;
22160;SDS011;49035;48.812;11.762;2022-10-22T14:25:16;3.03;;;1.13;;
22160;SDS011;49035;48.812;11.762;2022-10-22T14:27:43;2.25;;;1.27;;
22160;SDS011;49035;48.812;11.762;2022-10-22T14:30:12;1.73;;;0.80;;
22160;SDS011;49035;48.812;11.762;2022-10-22T14:32:39;1.30;;;1.20;;
22160;SDS011;49035;48.812;11.762;2022-10-22T14:35:05;2.55;;;1.10;;
22160;SDS011;49035;48.812;11.762;2022-10-22T14:37:31;1.17;;;1.08;;
22160;SDS011;49035;48.812;11.762;2022-10-22T14:39:56;3.35;;;1.13;;
22160;SDS011;49035;48.812;11.762;2022-10-22T14:42:26;2.50;;;1.10;;
22160;SDS011;49035;48.812;11.762;2022-10-22T14:44:53;2.15;;;1.40;;
22160;SDS011;49035;48.812;11.762;2022-10-22T14:47:18;4.75;;;1.10;;
22160;SDS011;49035;48.812;11.762;2022-10-22T14:49:45;4.05;;;1.10;;
22160;SDS011;49035;48.812;11.762;2022-10-22T14:52:11;1.33;;;0.98;;
22160;SDS011;49035;48.812;11.762;2022-10-22T14:54:36;1.15;;;0.90;;
22160;SDS011;49035;48.812;11.762;2022-10-22T14:57:02;3.70;;;1.35;;
22160;SDS011;49035;48.812;11.762;2022-10-22T14:59:29;2.35;;;1.88;;
22160;SDS011;49035;48.812;11.762;2022-10-22T15:01:54;1.23;;;1.10;;
22160;SDS011;49035;48.812;11.762;2022-10-22T15:04:20;1.50;;;1.20;;
22160;SDS011;49035;48.812;11.762;2022-10-22T15:06:46;1.48;;;0.90;;
22160;SDS011;49035;48.812;11.762;2022-10-22T15:09:12;3.92;;;1.30;;
22160;SDS011;49035;48.812;11.762;2022-10-22T15:11:38;1.23;;;1.13;;
22160;SDS011;49035;48.812;11.762;2022-10-22T15:14:03;3.40;;;1.60;;
22160;SDS011;49035;48.812;11.762;2022-10-22T15:16:29;1.70;;;1.27;;
22160;SDS011;49035;48.812;11.762;2022-10-22T15:18:55;1.45;;;1.13;;
22160;SDS011;49035;48.812;11.762;2022-10-22T15:21:21;2.03;;;1.05;;
22160;SDS011;49035;48.812;11.762;2022-10-22T15:23:47;2.10;;;1.10;;
22160;SDS011;49035;48.812;11.762;2022-10-22T15:26:13;1.00;;;1.00;;
22160;SDS011;49035;48.812;11.762;2022-10-22T15:28:40;2.78;;;1.27;;
22160;SDS011;49035;48.812;11.762;2022-10-22T15:31:06;1.27;;;1.17;;
22160;SDS011;49035;48.812;11.762;2022-10-22T15:33:32;1.20;;;1.10;;
22160;SDS011;49035;48.812;11.762;2022-10-22T15:36:07;2.75;;;1.23;;
22160;SDS011;49035;48.812;11.762;2022-10-22T15:38:37;2.78;;;1.23;;
22160;SDS011;49035;48.812;11.762;2022-10-22T15:41:03;3.08;;;1.00;;
22160;SDS011;49035;48.812;11.762;2022-10-22T15:43:30;1.65;;;1.35;;
22160;SDS011;49035;48.812;11.762;2022-10-22T15:48:39;2.45;;;1.88;;
22160;SDS011;49035;48.812;11.762;2022-10-22T15:51:07;3.20;;;2.13;;
22160;SDS011;49035;48.812;11.762;2022-10-22T15:53:33;3.58;;;1.90;;
22160;SDS011;49035;48.812;11.762;2022-10-22T15:55:59;2.92;;;2.10;;
22160;SDS011;49035;48.812;11.762;2022-10-22T15:58:24;2.08;;;1.70;;
22160;SDS011;49035;48.812;11.762;2022-10-22T16:00:50;2.63;;;1.92;;
22160;SDS011;49035;48.812;11.762;2022-10-22T16:03:15;3.17;;;1.60;;
22160;SDS011;49035;48.812;11.762;2022-10-22T16:05:48;2.90;;;1.80;;
22160;SDS011;49035;48.812;11.762;2022-10-22T16:08:21;1.75;;;1.58;;
22160;SDS011;49035;48.812;11.762;2022-10-22T16:10:46;3.70;;;1.85;;
22160;SDS011;49035;48.812;11.762;2022-10-22T16:13:13;3.65;;;1.65;;
22160;SDS011;49035;48.812;11.762;2022-10-22T16:15:39;3.58;;;2.25;;
22160;SDS011;49035;48.812;11.762;2022-10-22T16:18:05;5.25;;;3.35;;
22160;SDS011;49035;48.812;11.762;2022-10-22T16:20:30;5.18;;;3.58;;
22160;SDS011;49035;48.812;11.762;2022-10-22T16:22:56;7.93;;;4.47;;
22160;SDS011;49035;48.812;11.762;2022-10-22T16:25:22;6.30;;;3.33;;
22160;SDS011;49035;48.812;11.762;2022-10-22T16:27:48;6.07;;;3.30;;
22160;SDS011;49035;48.812;11.762;2022-10-22T16:30:14;10.57;;;5.38;;
22160;SDS011;49035;48.812;11.762;2022-10-22T16:32:40;5.60;;;2.95;;
22160;SDS011;49035;48.812;11.762;2022-10-22T16:35:06;4.43;;;3.50;;
22160;SDS011;49035;48.812;11.762;2022-10-22T16:37:32;5.40;;;3.67;;
22160;SDS011;49035;48.812;11.762;2022-10-22T16:39:58;5.88;;;4.10;;
22160;SDS011;49035;48.812;11.762;2022-10-22T16:42:23;7.03;;;5.25;;
22160;SDS011;49035;48.812;11.762;2022-10-22T16:44:49;7.43;;;4.57;;
22160;SDS011;49035;48.812;11.762;2022-10-22T16:47:15;6.70;;;4.03;;